createdAt,value
2022-10-05T00:01:05.162Z,55.41
2022-10-05T00:04:05.125Z,56.23
2022-10-05T00:07:05.093Z,56.73
2022-10-05T00:09:05.119Z,56.61
2022-10-05T00:12:05.075Z,56.94
2022-10-05T00:15:05.087Z,56.74
2022-10-05T00:17:05.105Z,57.31
2022-10-05T00:19:05.094Z,57.25
2022-10-05T00:22:05.062Z,57.19
2022-10-05T00:24:05.115Z,57.27
2022-10-05T00:27:05.083Z,57.49
2022-10-05T00:30:05.055Z,57.15
2022-10-05T00:32:05.133Z,56.91
2022-10-05T00:35:05.074Z,57.01
2022-10-05T00:38:05.080Z,56.98
2022-10-05T00:40:05.101Z,56.76
2022-10-05T00:43:05.091Z,56.12
2022-10-05T00:46:05.106Z,55.9
2022-10-05T00:48:05.102Z,55.76
2022-10-05T00:51:05.137Z,55.51
2022-10-05T00:54:05.063Z,55.62
2022-10-05T00:57:05.080Z,55.23
2022-10-05T00:59:12.339Z,55.36
2022-10-05T01:02:05.228Z,55.39
2022-10-05T01:04:05.090Z,55.48
2022-10-05T01:07:05.079Z,55.52
2022-10-05T01:09:05.089Z,55.59
2022-10-05T01:11:15.364Z,55.8
2022-10-05T01:14:15.412Z,56.28
2022-10-05T01:17:05.060Z,56.07
2022-10-05T01:19:05.063Z,56.35
2022-10-05T01:21:05.173Z,56.68
2022-10-05T01:24:05.075Z,56.84
2022-10-05T01:27:05.062Z,57.29
2022-10-05T01:29:05.068Z,57.33
2022-10-05T01:32:05.118Z,57.02
2022-10-05T01:34:09.203Z,56.93
2022-10-05T01:37:05.101Z,57.31
2022-10-05T01:40:05.109Z,57.43
2022-10-05T01:42:05.116Z,57.47
2022-10-05T01:45:05.165Z,57.79
2022-10-05T01:48:05.121Z,57.82
2022-10-05T01:51:05.069Z,57.78
2022-10-05T01:53:05.151Z,57.73
2022-10-05T01:56:05.141Z,57.7
2022-10-05T01:59:05.082Z,57.46
2022-10-05T02:01:05.119Z,57.23
2022-10-05T02:05:05.106Z,57.12
2022-10-05T02:08:05.188Z,57.08
2022-10-05T02:11:05.094Z,57.22
2022-10-05T02:13:05.124Z,56.92
2022-10-05T02:16:05.227Z,56.75
2022-10-05T02:19:05.110Z,56.56
2022-10-05T02:21:05.104Z,56.66
2022-10-05T02:23:05.114Z,56.62
2022-10-05T02:25:05.119Z,56.59
2022-10-05T02:28:05.159Z,56.45
2022-10-05T02:31:05.177Z,56.94
2022-10-05T02:33:05.107Z,57.01
2022-10-05T02:36:05.118Z,56.92
2022-10-05T02:39:05.099Z,56.81
2022-10-05T02:41:05.116Z,56.92
2022-10-05T02:44:05.118Z,57
2022-10-05T02:46:05.198Z,57.05
2022-10-05T02:48:05.111Z,57
2022-10-05T02:51:05.110Z,57.25
2022-10-05T02:54:05.068Z,57.14
2022-10-05T02:56:05.108Z,57.05
2022-10-05T02:59:05.081Z,57.06
2022-10-05T03:01:05.147Z,57.04
2022-10-05T03:04:05.107Z,57.22
2022-10-05T03:07:05.128Z,57.33
2022-10-05T03:09:05.109Z,57.41
2022-10-05T03:12:05.115Z,57.2
2022-10-05T03:15:05.116Z,56.96
2022-10-05T03:18:05.096Z,56.77
2022-10-05T03:20:05.097Z,56.48
2022-10-05T03:22:05.155Z,56.36
2022-10-05T03:25:05.132Z,56.41
2022-10-05T03:28:05.175Z,56.6
2022-10-05T03:31:05.140Z,56.43
2022-10-05T03:33:05.138Z,56.33
2022-10-05T03:36:05.140Z,56.37
2022-10-05T03:39:05.086Z,55.87
2022-10-05T03:41:05.135Z,55.95
2022-10-05T03:44:05.139Z,56.41
2022-10-05T03:47:05.152Z,55.8
2022-10-05T03:49:05.237Z,56.09
2022-10-05T03:52:05.126Z,55.97
2022-10-05T03:55:05.116Z,55.74
2022-10-05T03:57:05.135Z,55.87
2022-10-05T04:00:05.121Z,56.13
2022-10-05T04:02:05.139Z,56.19
2022-10-05T04:05:05.131Z,56.05
2022-10-05T04:08:05.131Z,55.59
2022-10-05T04:11:05.174Z,55.45
2022-10-05T04:13:05.254Z,55.47
2022-10-05T04:16:05.195Z,55.46
2022-10-05T04:19:05.107Z,55.47
2022-10-05T04:21:05.126Z,55.29
2022-10-05T04:24:05.114Z,55.18
2022-10-05T04:27:05.133Z,56.02
2022-10-05T04:29:05.134Z,56.24
2022-10-05T04:32:05.126Z,56.55
2022-10-05T04:35:05.121Z,56.67
2022-10-05T04:38:05.092Z,56.66
2022-10-05T04:40:05.164Z,56.78
2022-10-05T04:42:05.105Z,56.7
2022-10-05T04:45:05.078Z,56.7
2022-10-05T04:47:05.168Z,56.46
2022-10-05T04:50:05.068Z,56.2
2022-10-05T04:52:05.130Z,56
2022-10-05T04:54:05.095Z,56.04
2022-10-05T04:57:05.135Z,55.86
2022-10-05T05:00:05.115Z,56.28
2022-10-05T05:03:05.144Z,55.71
2022-10-05T05:06:16.719Z,55.68
2022-10-05T05:09:05.111Z,55.56
2022-10-05T05:12:05.102Z,55.11
2022-10-05T05:14:05.148Z,55.5
2022-10-05T05:17:06.752Z,55.17
2022-10-05T05:19:05.120Z,55.47
2022-10-05T05:22:05.135Z,55.28
2022-10-05T05:25:05.107Z,55.63
2022-10-05T05:27:05.115Z,55.68
2022-10-05T05:30:05.208Z,55.54
2022-10-05T05:33:05.106Z,55.98
2022-10-05T05:35:05.164Z,55.83
2022-10-05T05:38:05.124Z,55.59
2022-10-05T05:40:05.149Z,55.39
2022-10-05T05:42:05.339Z,54.94
2022-10-05T05:45:05.204Z,55.27
2022-10-05T05:48:05.098Z,55.49
2022-10-05T05:50:07.199Z,55.48
2022-10-05T05:53:05.144Z,55.32
2022-10-05T05:56:05.111Z,54.98
2022-10-05T05:58:05.128Z,55.25
2022-10-05T06:01:05.143Z,55.47
2022-10-05T06:04:05.113Z,55.54
2022-10-05T06:06:05.147Z,55.53
2022-10-05T06:08:05.150Z,55.67
2022-10-05T06:10:05.303Z,55.35
2022-10-05T06:13:05.144Z,55.5
2022-10-05T06:15:05.156Z,55.64
2022-10-05T06:19:05.105Z,55.48
2022-10-05T06:21:05.115Z,55.69
2022-10-05T06:24:05.108Z,55.77
2022-10-05T06:26:08.328Z,55.83
2022-10-05T06:29:05.111Z,55.58
2022-10-05T06:31:05.139Z,55.56
2022-10-05T06:34:05.137Z,55.55
2022-10-05T06:37:05.125Z,55.54
2022-10-05T06:39:05.211Z,55.52
2022-10-05T06:42:05.138Z,55.6
2022-10-05T06:45:05.129Z,55.77
2022-10-05T06:47:05.114Z,55.74
2022-10-05T06:50:05.127Z,55.89
2022-10-05T06:53:05.138Z,56.04
2022-10-05T06:55:05.148Z,56.01
2022-10-05T06:58:05.168Z,56.27
2022-10-05T07:01:05.215Z,56.3
2022-10-05T07:03:05.130Z,56.3
2022-10-05T07:06:05.154Z,56.31
2022-10-05T07:09:05.108Z,56.43
2022-10-05T07:11:05.142Z,56.51
2022-10-05T07:13:05.158Z,56.61
2022-10-05T07:16:05.178Z,56.59
2022-10-05T07:19:05.116Z,56.35
2022-10-05T07:21:05.126Z,56.56
2022-10-05T07:23:05.142Z,56.55
2022-10-05T07:26:05.133Z,56.26
2022-10-05T07:28:05.209Z,56.15
2022-10-05T07:31:05.219Z,56.45
2022-10-05T07:34:05.197Z,56.75
2022-10-05T07:37:05.142Z,56.65
2022-10-05T07:40:05.097Z,56.65
2022-10-05T07:42:05.169Z,56.47
2022-10-05T07:45:05.116Z,56.78
2022-10-05T07:47:05.172Z,56.89
2022-10-05T07:50:05.136Z,56.92
2022-10-05T07:52:05.147Z,56.96
2022-10-05T07:55:05.157Z,56.82
2022-10-05T07:58:05.192Z,56.9
2022-10-05T08:00:05.182Z,56.91
2022-10-05T08:03:05.229Z,57.12
2022-10-05T08:06:05.215Z,57.67
2022-10-05T08:08:05.177Z,57.86
2022-10-05T08:11:05.163Z,58.16
2022-10-05T08:14:05.106Z,57.72
2022-10-05T08:16:05.248Z,57.93
2022-10-05T08:19:05.112Z,58.11
2022-10-05T08:22:05.150Z,57.77
2022-10-05T08:24:05.148Z,57.91
2022-10-05T08:27:05.155Z,57.89
2022-10-05T08:29:05.177Z,57.92
2022-10-05T08:31:05.537Z,58.37
2022-10-05T08:34:05.117Z,58.2
2022-10-05T08:36:05.139Z,57.91
2022-10-05T08:38:05.147Z,57.73
2022-10-05T08:42:05.178Z,57.94
2022-10-05T08:44:05.156Z,58.33
2022-10-05T08:47:05.188Z,58.28
2022-10-05T08:49:05.174Z,58.63
2022-10-05T08:52:05.157Z,59.92
2022-10-05T08:54:05.157Z,59
2022-10-05T08:57:05.205Z,59.68
2022-10-05T09:00:05.129Z,58.94
2022-10-05T09:03:05.468Z,58.21
2022-10-05T09:06:06.194Z,58.64
2022-10-05T09:08:05.175Z,58.82
2022-10-05T09:11:05.202Z,59.04
2022-10-05T09:14:05.170Z,58.4
2022-10-05T09:17:05.171Z,59.56
2022-10-05T09:20:05.172Z,60.41
2022-10-05T09:23:05.168Z,60.22
2022-10-05T09:25:05.164Z,59.74
2022-10-05T09:28:05.206Z,58.23
2022-10-05T09:31:05.205Z,59.14
2022-10-05T09:33:05.228Z,59.77
2022-10-05T09:36:05.205Z,58.75
2022-10-05T09:39:05.161Z,59.03
2022-10-05T09:41:05.166Z,58.73
2022-10-05T09:43:05.165Z,56.92
2022-10-05T09:46:05.236Z,57.25
2022-10-05T09:49:05.164Z,63.46
2022-10-05T09:52:05.152Z,60.09
2022-10-05T09:55:05.169Z,61.53
2022-10-05T09:57:05.157Z,61.81
2022-10-05T09:59:05.221Z,61.86
2022-10-05T10:02:05.243Z,63.15
2022-10-05T10:05:05.175Z,63.16
2022-10-05T10:10:05.148Z,62.46
2022-10-05T10:12:05.155Z,63.7
2022-10-05T10:14:05.170Z,63.98
2022-10-05T10:17:05.166Z,63.29
2022-10-05T10:20:05.194Z,63.05
2022-10-05T10:23:05.375Z,63.38
2022-10-05T10:26:05.887Z,62.89
2022-10-05T10:29:05.227Z,57.2
2022-10-05T10:31:05.412Z,51.21
2022-10-05T10:34:05.174Z,47.06
2022-10-05T10:37:05.147Z,43.17
2022-10-05T10:40:05.184Z,40.55
2022-10-05T10:43:05.152Z,37.42
2022-10-05T10:45:05.199Z,36.54
2022-10-05T10:47:05.191Z,37.04
2022-10-05T10:50:05.264Z,37.57
2022-10-05T10:53:05.211Z,36.63
2022-10-05T10:56:05.196Z,42.31
2022-10-05T10:58:05.223Z,44.21
2022-10-05T11:01:05.198Z,46.7
2022-10-05T11:04:05.177Z,48.78
2022-10-05T11:07:05.184Z,51.7
2022-10-05T11:10:05.180Z,52.92
2022-10-05T11:12:05.183Z,53.3
2022-10-05T11:15:05.209Z,54.45
2022-10-05T11:18:05.187Z,52.94
2022-10-05T11:20:05.470Z,53.78
2022-10-05T11:23:05.171Z,53.08
2022-10-05T11:25:05.204Z,55.09
2022-10-05T11:28:05.239Z,54.09
2022-10-05T11:31:05.209Z,54.78
2022-10-05T11:33:05.186Z,54.19
2022-10-05T11:35:05.208Z,54.73
2022-10-05T11:38:05.234Z,53.86
2022-10-05T11:41:05.248Z,54.04
2022-10-05T11:44:06.280Z,54.2
2022-10-05T11:46:05.297Z,53.74
2022-10-05T11:49:05.183Z,54.46
2022-10-05T11:52:05.197Z,52.51
2022-10-05T11:55:10.694Z,52.74
2022-10-05T11:57:05.187Z,53.01
2022-10-05T11:59:06.200Z,53.57
2022-10-05T12:01:05.205Z,51.77
2022-10-05T12:05:05.196Z,51.52
2022-10-05T12:07:05.190Z,51.31
2022-10-05T12:10:05.272Z,51.47
2022-10-05T12:12:05.202Z,51.47
2022-10-05T12:15:05.205Z,50.8
2022-10-05T12:17:05.214Z,51.88
2022-10-05T12:20:05.244Z,50.5
2022-10-05T12:23:05.209Z,51.33
2022-10-05T12:26:05.251Z,50.25
2022-10-05T12:29:05.164Z,48.32
2022-10-05T12:31:05.228Z,48.32
2022-10-05T12:34:05.208Z,48.06
2022-10-05T12:37:05.667Z,47.88
2022-10-05T12:40:05.233Z,48
2022-10-05T12:42:05.240Z,47.97
2022-10-05T12:45:05.199Z,47.67
2022-10-05T12:47:05.228Z,48.22
2022-10-05T12:50:05.238Z,47.9
2022-10-05T12:53:05.220Z,48.2
2022-10-05T12:56:05.187Z,47.81
2022-10-05T12:58:05.243Z,48.01
2022-10-05T13:01:05.220Z,47.87
2022-10-05T13:03:05.218Z,47.96
2022-10-05T13:06:05.258Z,48.01
2022-10-05T13:09:05.176Z,48.26
2022-10-05T13:11:05.217Z,48.16
2022-10-05T13:13:05.295Z,48.37
2022-10-05T13:16:05.271Z,48.46
2022-10-05T13:21:05.259Z,48.73
2022-10-05T13:24:05.226Z,48.51
2022-10-05T13:26:05.264Z,48.14
2022-10-05T13:29:05.243Z,47.83
2022-10-05T13:32:05.218Z,48.16
2022-10-05T13:34:05.251Z,48.48
2022-10-05T13:37:05.230Z,48.35
2022-10-05T13:40:05.221Z,48.2
2022-10-05T13:42:05.230Z,48.12
2022-10-05T13:45:05.233Z,47.83
2022-10-05T13:48:05.201Z,47.7
2022-10-05T13:50:05.403Z,47.34
2022-10-05T13:53:05.242Z,47.4
2022-10-05T13:56:05.448Z,47.45
2022-10-05T13:58:05.273Z,47.09
2022-10-05T14:01:05.219Z,46.57
2022-10-05T14:04:05.217Z,46.38
2022-10-05T14:06:05.292Z,45.75
2022-10-05T14:09:05.256Z,45.55
2022-10-05T14:12:05.210Z,45.2
2022-10-05T14:14:05.244Z,44.54
2022-10-05T14:17:05.200Z,44.64
2022-10-05T14:19:05.233Z,44.12
2022-10-05T14:22:05.196Z,44.5
2022-10-05T14:24:08.406Z,44.84
2022-10-05T14:26:05.236Z,45.24
2022-10-05T14:29:05.224Z,44.88
2022-10-05T14:31:05.221Z,45.32
2022-10-05T14:34:05.746Z,46.22
2022-10-05T14:36:05.209Z,44.89
2022-10-05T14:38:06.425Z,45.26
2022-10-05T14:41:05.233Z,44.96
2022-10-05T14:44:05.248Z,46.27
2022-10-05T14:47:05.235Z,46.9
2022-10-05T14:50:05.266Z,47.4
2022-10-05T14:53:05.245Z,47.46
2022-10-05T14:56:05.239Z,47.26
2022-10-05T14:59:05.232Z,47.57
2022-10-05T15:02:05.266Z,47.59
2022-10-05T15:05:05.235Z,47.63
2022-10-05T15:07:05.241Z,47.7
2022-10-05T15:09:12.495Z,47.37
2022-10-05T15:12:05.268Z,47.36
2022-10-05T15:15:05.238Z,47.37
2022-10-05T15:17:05.309Z,46.91
2022-10-05T15:19:05.255Z,46.33
2022-10-05T15:21:05.252Z,45.87
2022-10-05T15:23:05.739Z,45.75
2022-10-05T15:26:05.261Z,45.62
2022-10-05T15:28:05.300Z,45.5
2022-10-05T15:30:05.247Z,45.28
2022-10-05T15:32:05.278Z,45.98
2022-10-05T15:35:05.212Z,45.95
2022-10-05T15:37:05.255Z,45.76
2022-10-05T15:39:05.276Z,45.7
2022-10-05T15:42:05.281Z,45.43
2022-10-05T15:45:05.285Z,44.75
2022-10-05T15:48:05.284Z,44.47
2022-10-05T15:50:05.287Z,44.44
2022-10-05T15:53:05.275Z,45.3
2022-10-05T15:56:05.261Z,45.76
2022-10-05T15:58:05.263Z,45.4
2022-10-05T16:01:05.384Z,45.48
2022-10-05T16:03:05.303Z,45.46
2022-10-05T16:06:05.250Z,45.69
2022-10-05T16:09:05.236Z,45.81
2022-10-05T16:11:05.361Z,45.93
2022-10-05T16:14:05.253Z,45.75
2022-10-05T16:16:05.344Z,45.83
2022-10-05T16:19:05.257Z,45.99
2022-10-05T16:21:05.317Z,46.47
2022-10-05T16:24:05.245Z,47.07
2022-10-05T16:26:05.276Z,47.25
2022-10-05T16:29:05.267Z,48.07
2022-10-05T16:31:05.321Z,48.03
2022-10-05T16:33:06.152Z,48.36
2022-10-05T16:36:05.303Z,47.5
2022-10-05T16:39:05.305Z,47.07
2022-10-05T16:42:05.285Z,46.21
2022-10-05T16:45:05.294Z,46.11
2022-10-05T16:48:05.274Z,44.44
2022-10-05T16:50:05.300Z,45.11
2022-10-05T16:53:05.266Z,43.77
2022-10-05T16:56:05.277Z,43.18
2022-10-05T16:58:05.286Z,44.78
2022-10-05T17:01:05.350Z,45.2
2022-10-05T17:03:05.289Z,42.78
2022-10-05T17:06:05.271Z,41.58
2022-10-05T17:09:05.274Z,42.03
2022-10-05T17:11:05.276Z,40.89
2022-10-05T17:14:05.254Z,41.52
2022-10-05T17:16:05.352Z,43.18
2022-10-05T17:19:05.310Z,43.38
2022-10-05T17:21:05.289Z,44.72
2022-10-05T17:23:05.304Z,45.19
2022-10-05T17:26:05.288Z,44.67
2022-10-05T17:28:05.506Z,45.54
2022-10-05T17:31:05.358Z,43.37
2022-10-05T17:34:05.254Z,44.18
2022-10-05T17:36:05.289Z,43.84
2022-10-05T17:38:05.317Z,43.73
2022-10-05T17:40:05.329Z,44.8
2022-10-05T17:43:05.316Z,43.96
2022-10-05T17:46:05.335Z,44.69
2022-10-05T17:48:05.349Z,44.55
2022-10-05T17:51:05.307Z,44.28
2022-10-05T17:54:05.297Z,43.65
2022-10-05T17:57:05.297Z,44.94
2022-10-05T18:00:05.278Z,44.51
2022-10-05T18:03:05.333Z,44.74
2022-10-05T18:06:05.284Z,45.22
2022-10-05T18:08:05.282Z,44.89
2022-10-05T18:10:05.311Z,45.52
2022-10-05T18:13:05.284Z,44.74
2022-10-05T18:15:05.277Z,44.72
2022-10-05T18:18:05.308Z,44.55
2022-10-05T18:20:05.293Z,44.87
2022-10-05T18:22:05.306Z,44.77
2022-10-05T18:25:05.863Z,44.64
2022-10-05T18:28:05.410Z,45.04
2022-10-05T18:31:05.378Z,45.05
2022-10-05T18:33:05.314Z,44.95
2022-10-05T18:35:05.307Z,45.14
2022-10-05T18:38:05.303Z,45.25
2022-10-05T18:41:05.329Z,45.29
2022-10-05T18:44:05.472Z,45.04
2022-10-05T18:47:05.275Z,45.23
2022-10-05T18:49:05.323Z,45.22
2022-10-05T18:52:05.333Z,45.53
2022-10-05T18:55:05.330Z,45.43
2022-10-05T18:58:05.332Z,45.39
2022-10-05T19:00:05.346Z,45.32
2022-10-05T19:03:05.306Z,45.66
2022-10-05T19:05:05.536Z,45.67
2022-10-05T19:08:05.299Z,45.72
2022-10-05T19:10:05.361Z,45.51
2022-10-05T19:13:05.325Z,45.87
2022-10-05T19:16:05.357Z,45.79
2022-10-05T19:19:05.289Z,46.01
2022-10-05T19:22:05.334Z,46.04
2022-10-05T19:24:05.304Z,46.27
2022-10-05T19:27:05.285Z,46.25
2022-10-05T19:30:05.332Z,46.23
2022-10-05T19:33:05.332Z,46.47
2022-10-05T19:36:05.322Z,46.5
2022-10-05T19:38:05.374Z,46.38
2022-10-05T19:41:05.309Z,46.73
2022-10-05T19:44:05.303Z,46.66
2022-10-05T19:46:05.395Z,46.98
2022-10-05T19:49:05.324Z,47.25
2022-10-05T19:51:05.333Z,47.32
2022-10-05T19:53:05.331Z,47.41
2022-10-05T19:56:05.316Z,47.58
2022-10-05T19:58:05.347Z,47.6
2022-10-05T20:01:05.551Z,47.66
2022-10-05T20:04:05.325Z,48.01
2022-10-05T20:06:05.342Z,47.95
2022-10-05T20:09:05.320Z,48.12
2022-10-05T20:12:05.301Z,48.26
2022-10-05T20:14:05.343Z,48.23
2022-10-05T20:17:05.320Z,48.37
2022-10-05T20:20:05.365Z,48.76
2022-10-05T20:23:05.347Z,48.94
2022-10-05T20:25:05.312Z,49.18
2022-10-05T20:27:05.439Z,49.21
2022-10-05T20:29:05.352Z,49.33
2022-10-05T20:31:05.383Z,49.27
2022-10-05T20:34:05.333Z,49.53
2022-10-05T20:37:05.331Z,49.71
2022-10-05T20:40:05.315Z,49.55
2022-10-05T20:42:05.363Z,49.76
2022-10-05T20:45:05.331Z,49.99
2022-10-05T20:48:05.317Z,50.17
2022-10-05T20:50:05.373Z,50.19
2022-10-05T20:53:08.422Z,49.93
2022-10-05T20:56:05.329Z,50.34
2022-10-05T20:58:05.338Z,50.45
2022-10-05T21:00:05.423Z,50.5
2022-10-05T21:03:05.321Z,50.12
2022-10-05T21:05:05.340Z,50.37
2022-10-05T21:07:15.603Z,50.28
2022-10-05T21:09:15.614Z,50.63
2022-10-05T21:12:05.335Z,50.49
2022-10-05T21:15:05.324Z,50.49
2022-10-05T21:17:05.346Z,50.56
2022-10-05T21:19:05.341Z,50.44
2022-10-05T21:22:05.327Z,50.43
2022-10-05T21:24:05.377Z,50.89
2022-10-05T21:26:05.369Z,50.62
2022-10-05T21:29:09.017Z,50.7
2022-10-05T21:31:05.374Z,50.6
2022-10-05T21:34:05.332Z,50.92
2022-10-05T21:36:05.350Z,50.93
2022-10-05T21:39:05.343Z,51.19
2022-10-05T21:41:05.361Z,51
2022-10-05T21:43:08.505Z,50.98
2022-10-05T21:46:05.464Z,51.27
2022-10-05T21:49:05.340Z,51.19
2022-10-05T21:51:05.342Z,51.46
2022-10-05T21:53:05.366Z,51.53
2022-10-05T21:55:05.390Z,51.67
2022-10-05T21:58:05.349Z,52.07
2022-10-05T22:00:05.374Z,52.22
2022-10-05T22:02:05.370Z,52.5
2022-10-05T22:04:05.397Z,52.59
2022-10-05T22:07:05.374Z,53.03
2022-10-05T22:10:05.415Z,53.72
2022-10-05T22:12:05.440Z,53.84
2022-10-05T22:15:05.380Z,53.27
2022-10-05T22:18:05.335Z,53.23
2022-10-05T22:22:08.646Z,53.46
2022-10-05T22:25:05.333Z,53.65
2022-10-05T22:27:05.351Z,53.64
2022-10-05T22:30:05.377Z,54.14
2022-10-05T22:33:05.366Z,54.1
2022-10-05T22:36:05.403Z,54.38
2022-10-05T22:38:15.656Z,54.54
2022-10-05T22:40:15.675Z,54.12
2022-10-05T22:43:05.371Z,54.05
2022-10-05T22:45:05.363Z,53.8
2022-10-05T22:48:05.347Z,53.98
2022-10-05T22:50:05.384Z,53.72
2022-10-05T22:53:05.327Z,53.98
2022-10-05T22:56:05.376Z,53.83
2022-10-05T22:58:05.399Z,53.84
2022-10-05T23:01:05.406Z,54.06
2022-10-05T23:03:05.371Z,54.02
2022-10-05T23:06:05.372Z,54.18
2022-10-05T23:09:05.376Z,54.02
2022-10-05T23:11:05.404Z,54.54
2022-10-05T23:14:05.393Z,54.54
2022-10-05T23:16:05.414Z,54.41
2022-10-05T23:18:06.371Z,54.42
2022-10-05T23:20:05.365Z,54.46
2022-10-05T23:22:05.367Z,54.4
2022-10-05T23:25:05.344Z,54.01
2022-10-05T23:28:05.414Z,53.53
2022-10-05T23:30:05.386Z,54.1
2022-10-05T23:33:05.374Z,54.71
2022-10-05T23:35:05.359Z,54.07
2022-10-05T23:38:05.360Z,54.45
2022-10-05T23:40:05.371Z,54.3
2022-10-05T23:42:05.878Z,54.54
2022-10-05T23:45:05.351Z,54.38
2022-10-05T23:47:05.356Z,54.57
2022-10-05T23:49:05.386Z,54.56
2022-10-05T23:51:05.373Z,54.72
2022-10-05T23:54:05.388Z,54.62
2022-10-05T23:57:05.365Z,54.65
